Saint Johnsbury Center, Vermont
Current Conditions -  °F | °C
As of 7:15 PM on Thursday 27 Nov 2014 (Local Time) from KCDA Reporting Station
Overcast Overcast  
Wind Chill: 25°   Ceiling: 1500
Heat Index: 25°   Visibility: 10mi
Dew Point: 19°   Wind: 3mph
Humidity: 79%   Direction: 310°NW
Pressure: 29.98"   Gusts: NA
Location:  44.46°N, 72.01°W
Report Text: KCDA 280015Z AUTO 31003KT 10SM OVC015 M04/M07 A2998 RMK AO2 T10401072
Loading
Personal Weather Stations






























Interactive Weather Map New forecast layout! Learn more

10-Day Weather Forecast

Advertisements
Track Severe Weather on mobile